Time;durP1;ratioP1;P1;durP2;ratioP2;P2;SDS_P1;SDS_P2;PMS_P1;PMS_P2;Temp;Humidity;BMP_temperature;BMP_pressure;BME280_temperature;BME280_humidity;BME280_pressure;Samples;Min_cycle;Max_cycle;Signal;HPM_P1;HPM_P2
2021/11/06 00:00:02;;;;;;;24.77;17.33;;;7.70;99.90;;;;;;5093311;28;20231;-74
2021/11/06 00:02:29;;;;;;;23.95;17.27;;;7.80;99.90;;;;;;5093175;28;20308;-74
2021/11/06 00:04:56;;;;;;;25.00;18.10;;;7.70;99.90;;;;;;5095338;28;20202;-75
2021/11/06 00:07:22;;;;;;;26.70;17.00;;;7.70;99.90;;;;;;5097178;28;20204;-75
2021/11/06 00:09:50;;;;;;;27.83;17.90;;;7.60;99.90;;;;;;5097074;28;20271;-74
2021/11/06 00:12:16;;;;;;;26.65;18.02;;;7.50;99.90;;;;;;5096713;28;20264;-74
2021/11/06 00:14:45;;;;;;;25.65;18.15;;;7.40;99.90;;;;;;5097039;28;20205;-75
2021/11/06 00:17:11;;;;;;;27.30;19.13;;;7.30;99.90;;;;;;5097021;28;20205;-74
2021/11/06 00:19:38;;;;;;;32.35;19.52;;;7.30;99.90;;;;;;5096954;28;20344;-74
2021/11/06 00:22:06;;;;;;;27.30;20.05;;;7.30;99.90;;;;;;5096561;28;20222;-74
2021/11/06 00:24:33;;;;;;;28.45;20.67;;;7.40;99.90;;;;;;5096893;28;20202;-75
2021/11/06 00:27:00;;;;;;;26.65;19.42;;;7.40;99.90;;;;;;5096759;28;20293;-74
2021/11/06 00:29:27;;;;;;;26.67;20.40;;;7.40;99.90;;;;;;5096622;28;20686;-75
2021/11/06 00:31:55;;;;;;;28.05;20.50;;;7.30;99.90;;;;;;5096278;28;20626;-74
2021/11/06 00:34:22;;;;;;;31.45;21.33;;;7.20;99.90;;;;;;5096423;28;20264;-75
2021/11/06 00:36:49;;;;;;;31.13;21.35;;;7.20;99.90;;;;;;5096637;28;20198;-75
2021/11/06 00:39:16;;;;;;;31.75;22.58;;;7.10;99.90;;;;;;5096405;28;20241;-75
2021/11/06 00:41:43;;;;;;;32.13;22.75;;;6.90;99.90;;;;;;5096188;28;20229;-74
2021/11/06 00:44:09;;;;;;;31.55;21.70;;;6.90;99.90;;;;;;5096501;28;20238;-75
2021/11/06 00:46:36;;;;;;;30.45;21.67;;;6.90;99.90;;;;;;5096817;28;20257;-74
2021/11/06 00:49:05;;;;;;;32.28;22.30;;;6.90;99.90;;;;;;5096308;28;20672;-74
2021/11/06 00:51:32;;;;;;;30.05;20.58;;;6.90;99.90;;;;;;5095958;28;20229;-75
2021/11/06 00:53:58;;;;;;;30.40;22.20;;;6.90;99.90;;;;;;5096401;28;20584;-74
2021/11/06 00:56:25;;;;;;;32.80;22.35;;;6.70;99.90;;;;;;5096188;28;20213;-74
2021/11/06 00:58:52;;;;;;;33.63;22.70;;;6.60;99.90;;;;;;5096223;28;20228;-75
2021/11/06 01:01:19;;;;;;;33.47;21.13;;;6.70;99.90;;;;;;5095999;28;20615;-74
2021/11/06 01:03:46;;;;;;;30.92;21.65;;;6.70;99.90;;;;;;5095806;28;20261;-74
2021/11/06 01:06:15;;;;;;;31.38;21.73;;;6.70;99.90;;;;;;5096065;28;20248;-74
2021/11/06 01:08:43;;;;;;;31.45;21.92;;;6.80;99.90;;;;;;5095944;28;20237;-75
2021/11/06 01:11:10;;;;;;;31.38;22.25;;;6.70;99.90;;;;;;5095771;28;20557;-74
2021/11/06 01:13:37;;;;;;;36.42;24.20;;;6.60;99.90;;;;;;5095939;28;20226;-74
2021/11/06 01:16:05;;;;;;;34.17;23.75;;;6.50;99.90;;;;;;5094703;28;20625;-73
2021/11/06 01:18:31;;;;;;;36.13;25.10;;;6.40;99.90;;;;;;5095711;28;20712;-75
2021/11/06 01:20:58;;;;;;;108.60;28.63;;;6.40;99.90;;;;;;5095469;28;20289;-74
2021/11/06 01:23:26;;;;;;;49.08;26.73;;;6.30;99.90;;;;;;5095435;28;20225;-74
2021/11/06 01:25:53;;;;;;;38.22;24.10;;;6.40;99.90;;;;;;5095466;28;20206;-74
2021/11/06 01:28:20;;;;;;;58.20;24.48;;;6.40;99.90;;;;;;5095642;28;20288;-74
2021/11/06 01:30:47;;;;;;;36.63;22.95;;;6.40;99.90;;;;;;5095524;28;20550;-74
2021/11/06 01:33:14;;;;;;;50.42;21.90;;;6.40;99.90;;;;;;5095289;28;20226;-74
2021/11/06 01:35:41;;;;;;;64.45;23.17;;;6.50;99.90;;;;;;5095573;28;20206;-74
2021/11/06 01:38:08;;;;;;;36.95;22.02;;;6.50;99.90;;;;;;5095397;28;20201;-74
2021/11/06 01:40:36;;;;;;;36.30;21.42;;;6.50;99.90;;;;;;5095209;28;20292;-74
2021/11/06 01:43:03;;;;;;;38.13;22.52;;;6.60;99.90;;;;;;5094875;28;20726;-74
2021/11/06 01:45:30;;;;;;;31.27;21.05;;;6.70;99.90;;;;;;5095328;28;20201;-75
2021/11/06 01:47:57;;;;;;;35.70;22.73;;;6.80;99.90;;;;;;5095158;28;20287;-74
2021/11/06 01:50:24;;;;;;;30.27;20.77;;;6.90;99.90;;;;;;5095102;28;20309;-74
2021/11/06 01:52:53;;;;;;;37.70;21.23;;;6.90;99.90;;;;;;5095028;28;20222;-74
2021/11/06 01:55:20;;;;;;;33.63;21.45;;;7.00;99.90;;;;;;5095108;28;20209;-74
2021/11/06 01:57:49;;;;;;;31.67;20.30;;;7.00;99.90;;;;;;5095049;28;20198;-74
2021/11/06 02:00:19;;;;;;;32.05;19.88;;;7.00;99.90;;;;;;5094837;28;20208;-74
2021/11/06 02:02:46;;;;;;;28.10;19.10;;;6.80;99.90;;;;;;5094575;28;20317;-73
2021/11/06 02:05:14;;;;;;;29.02;20.30;;;6.80;99.90;;;;;;5094958;28;20202;-74
2021/11/06 02:07:42;;;;;;;28.40;18.98;;;6.70;99.90;;;;;;5094686;28;20731;-74
2021/11/06 02:10:10;;;;;;;31.38;20.40;;;6.50;99.90;;;;;;5094761;28;20204;-74
2021/11/06 02:12:37;;;;;;;31.58;19.35;;;6.60;99.90;;;;;;5094652;28;20599;-74
2021/11/06 02:15:08;;;;;;;30.33;17.75;;;6.50;99.90;;;;;;5094802;28;20201;-75
2021/11/06 02:17:35;;;;;;;35.67;20.15;;;6.50;99.90;;;;;;5094655;28;20212;-74
2021/11/06 02:20:03;;;;;;;27.23;16.98;;;6.40;99.90;;;;;;5094657;28;20586;-74
2021/11/06 02:22:33;;;;;;;29.00;18.13;;;6.40;99.90;;;;;;5094196;28;20226;-74
2021/11/06 02:25:00;;;;;;;26.52;18.00;;;6.40;99.90;;;;;;5094820;28;20205;-74
2021/11/06 02:27:27;;;;;;;30.38;18.23;;;6.20;99.90;;;;;;5094230;28;20289;-74
2021/11/06 02:29:54;;;;;;;50.65;19.67;;;6.20;99.90;;;;;;5094456;28;20229;-74
2021/11/06 02:32:21;;;;;;;30.58;18.30;;;6.20;99.90;;;;;;5093959;28;20226;-74
2021/11/06 02:34:48;;;;;;;34.25;18.40;;;6.30;99.90;;;;;;5094371;28;20292;-73
2021/11/06 02:37:15;;;;;;;29.40;17.35;;;6.40;99.90;;;;;;5094347;28;20240;-74
2021/11/06 02:39:43;;;;;;;30.50;18.13;;;6.60;99.90;;;;;;5094122;28;20206;-74
2021/11/06 02:42:10;;;;;;;32.58;19.92;;;6.60;99.90;;;;;;5093928;28;20218;-74
2021/11/06 02:44:38;;;;;;;24.98;17.77;;;6.60;99.90;;;;;;5094276;28;20566;-74
2021/11/06 02:47:06;;;;;;;28.33;17.70;;;6.60;99.90;;;;;;5094211;28;20228;-74
2021/11/06 02:49:33;;;;;;;26.08;17.13;;;6.50;99.90;;;;;;5094139;28;20308;-74
2021/11/06 02:52:00;;;;;;;28.80;17.77;;;6.50;99.90;;;;;;5093539;28;20232;-73
2021/11/06 02:54:28;;;;;;;28.70;17.80;;;6.50;99.90;;;;;;5094138;28;20206;-74
2021/11/06 02:56:56;;;;;;;28.70;18.65;;;6.40;99.90;;;;;;5094040;28;20198;-74
2021/11/06 02:59:23;;;;;;;26.65;18.05;;;6.40;99.90;;;;;;5094036;28;20213;-74
2021/11/06 03:01:51;;;;;;;24.33;17.35;;;6.20;99.90;;;;;;5093753;28;20293;-73
2021/11/06 03:04:18;;;;;;;28.80;18.65;;;6.10;99.90;;;;;;5093993;28;20629;-74
2021/11/06 03:06:46;;;;;;;27.30;18.25;;;6.10;99.90;;;;;;5094106;28;20201;-74
2021/11/06 03:09:13;;;;;;;53.60;21.33;;;6.00;99.90;;;;;;5093776;28;20248;-74
2021/11/06 03:11:40;;;;;;;29.58;19.10;;;6.00;99.90;;;;;;5093370;28;20217;-74
2021/11/06 03:14:10;;;;;;;28.45;18.73;;;5.90;99.90;;;;;;5093552;28;20205;-74
2021/11/06 03:16:37;;;;;;;29.67;18.60;;;5.90;99.90;;;;;;5093544;28;20695;-74
2021/11/06 03:19:04;;;;;;;30.00;19.48;;;5.90;99.90;;;;;;5093750;28;20240;-74
2021/11/06 03:21:32;;;;;;;28.58;17.45;;;6.00;99.90;;;;;;5093458;28;20229;-74
2021/11/06 03:23:59;;;;;;;28.52;18.45;;;6.10;99.90;;;;;;5093663;28;20275;-74
2021/11/06 03:26:26;;;;;;;30.42;18.45;;;6.20;99.90;;;;;;5093555;28;20208;-74
2021/11/06 03:28:52;;;;;;;26.48;17.85;;;6.40;99.90;;;;;;5093433;28;20727;-73
2021/11/06 03:31:21;;;;;;;28.55;17.83;;;6.50;99.90;;;;;;5093384;28;20233;-74
2021/11/06 03:33:47;;;;;;;27.08;17.00;;;6.50;99.90;;;;;;5093224;28;20308;-74
2021/11/06 03:36:15;;;;;;;26.90;16.50;;;6.60;99.90;;;;;;5093591;28;20198;-74
2021/11/06 03:38:42;;;;;;;22.90;16.05;;;6.60;99.90;;;;;;5093439;28;20296;-74
2021/11/06 03:41:09;;;;;;;30.30;16.77;;;6.70;99.90;;;;;;5097192;28;20205;-73
2021/11/06 03:43:37;;;;;;;29.23;16.80;;;6.60;99.90;;;;;;5097647;28;20222;-74
2021/11/06 03:46:04;;;;;;;24.98;17.30;;;6.60;99.90;;;;;;5097632;28;20278;-74
2021/11/06 03:48:33;;;;;;;23.27;16.58;;;6.40;99.90;;;;;;5097602;28;20209;-74
2021/11/06 03:51:00;;;;;;;22.27;15.63;;;6.20;99.90;;;;;;5097020;28;20221;-74
2021/11/06 03:53:27;;;;;;;24.17;16.95;;;6.30;99.90;;;;;;5097338;28;20587;-74
2021/11/06 03:55:53;;;;;;;23.70;15.65;;;6.30;99.90;;;;;;5097419;28;20198;-74
2021/11/06 03:58:20;;;;;;;25.30;16.85;;;6.20;99.90;;;;;;5097209;28;20202;-74
2021/11/06 04:00:47;;;;;;;26.73;17.50;;;6.00;99.90;;;;;;5097158;28;20676;-74
2021/11/06 04:03:14;;;;;;;32.05;18.15;;;5.90;99.90;;;;;;5096961;28;20228;-74
2021/11/06 04:05:42;;;;;;;28.65;18.08;;;5.80;99.90;;;;;;5097317;28;20288;-74
2021/11/06 04:08:09;;;;;;;35.35;20.05;;;5.70;99.90;;;;;;5097190;28;20634;-74
2021/11/06 04:10:36;;;;;;;32.10;18.98;;;5.60;99.90;;;;;;5097049;28;20214;-74
2021/11/06 04:13:03;;;;;;;26.88;17.90;;;5.60;99.90;;;;;;5096863;28;20245;-73
2021/11/06 04:15:30;;;;;;;26.67;18.25;;;5.60;99.90;;;;;;5096961;28;20549;-74
2021/11/06 04:17:57;;;;;;;30.02;19.73;;;5.70;99.90;;;;;;5096789;28;20210;-74
2021/11/06 04:20:24;;;;;;;25.42;17.10;;;5.90;99.90;;;;;;5096691;28;20336;-74
2021/11/06 04:22:52;;;;;;;23.35;16.75;;;6.00;99.90;;;;;;5096476;28;20304;-74
2021/11/06 04:25:19;;;;;;;29.05;16.60;;;6.10;99.90;;;;;;5096676;28;20202;-74
2021/11/06 04:27:47;;;;;;;25.55;16.98;;;6.30;99.90;;;;;;5096860;28;20210;-74
2021/11/06 04:30:14;;;;;;;28.77;17.90;;;6.30;99.90;;;;;;5096842;28;20621;-74
2021/11/06 04:32:41;;;;;;;25.38;17.15;;;6.10;99.90;;;;;;5096186;28;20226;-73
2021/11/06 04:35:09;;;;;;;29.35;18.50;;;5.90;99.90;;;;;;5096443;28;20213;-74
2021/11/06 04:37:36;;;;;;;25.58;16.13;;;5.70;99.90;;;;;;5096435;28;20289;-74
2021/11/06 04:40:06;;;;;;;30.30;19.35;;;5.50;99.90;;;;;;5096523;28;20608;-74
2021/11/06 04:42:33;;;;;;;26.08;16.75;;;5.40;99.90;;;;;;5096135;28;20766;-74
2021/11/06 04:45:00;;;;;;;22.92;15.65;;;5.30;99.90;;;;;;5096626;28;20626;-74
2021/11/06 04:47:27;;;;;;;25.80;15.20;;;5.30;99.90;;;;;;5096460;28;20302;-74
2021/11/06 04:49:54;;;;;;;25.52;15.40;;;5.40;99.90;;;;;;5096253;28;20297;-74
2021/11/06 04:52:20;;;;;;;27.13;17.80;;;5.20;99.90;;;;;;5096081;28;20295;-73
2021/11/06 04:54:47;;;;;;;24.98;16.45;;;5.30;99.90;;;;;;5096088;28;20209;-74
2021/11/06 04:57:15;;;;;;;25.67;16.80;;;5.30;99.90;;;;;;5096297;28;20202;-74
2021/11/06 04:59:42;;;;;;;24.90;17.15;;;5.20;99.90;;;;;;5096238;28;20208;-74
2021/11/06 05:02:09;;;;;;;27.58;17.38;;;5.30;99.90;;;;;;5095827;28;20222;-74
2021/11/06 05:04:37;;;;;;;28.90;17.70;;;5.40;99.90;;;;;;5095905;28;20204;-74
2021/11/06 05:07:04;;;;;;;32.80;18.60;;;5.50;99.90;;;;;;5095899;28;20247;-74
2021/11/06 05:09:31;;;;;;;31.70;18.48;;;5.40;99.90;;;;;;5095932;28;20198;-74
2021/11/06 05:11:58;;;;;;;30.48;18.23;;;5.30;99.90;;;;;;5095608;28;20257;-73
2021/11/06 05:14:26;;;;;;;28.10;17.98;;;5.30;99.90;;;;;;5096055;28;20198;-74
2021/11/06 05:16:53;;;;;;;28.70;18.55;;;5.30;99.90;;;;;;5095880;28;20720;-74
2021/11/06 05:19:21;;;;;;;26.20;16.98;;;5.30;99.90;;;;;;5095609;28;20668;-74
2021/11/06 05:21:48;;;;;;;26.38;18.02;;;5.30;99.90;;;;;;5095499;28;20217;-73
2021/11/06 05:24:14;;;;;;;26.23;17.63;;;5.40;99.90;;;;;;5095844;28;20597;-74
2021/11/06 05:26:41;;;;;;;23.95;17.05;;;5.50;99.90;;;;;;5095573;28;20202;-74
2021/11/06 05:29:10;;;;;;;24.10;15.63;;;5.60;99.90;;;;;;5095656;28;20198;-74
2021/11/06 05:31:40;;;;;;;23.75;16.48;;;5.70;99.90;;;;;;5095105;28;20317;-73
2021/11/06 05:34:08;;;;;;;28.25;17.40;;;5.70;99.90;;;;;;5095599;28;20238;-74
2021/11/06 05:36:35;;;;;;;27.50;17.05;;;5.80;99.90;;;;;;5095548;28;20205;-74
2021/11/06 05:39:01;;;;;;;27.08;18.55;;;5.70;99.90;;;;;;5095351;28;20214;-74
2021/11/06 05:41:29;;;;;;;33.90;18.52;;;5.60;99.90;;;;;;5095252;28;20616;-74
2021/11/06 05:43:56;;;;;;;61.67;20.40;;;5.50;99.90;;;;;;5095190;28;20222;-74
2021/11/06 05:46:22;;;;;;;71.15;19.90;;;5.40;99.90;;;;;;5095063;28;20204;-74
2021/11/06 05:48:51;;;;;;;30.02;19.00;;;5.30;99.90;;;;;;5095301;28;20206;-74
2021/11/06 05:51:18;;;;;;;31.80;19.05;;;5.30;99.90;;;;;;5094899;28;20285;-74
2021/11/06 05:53:44;;;;;;;75.13;21.33;;;5.40;99.90;;;;;;5095342;28;20562;-74
2021/11/06 05:56:11;;;;;;;28.63;17.42;;;5.30;99.90;;;;;;5095086;28;20668;-73
2021/11/06 05:58:38;;;;;;;40.28;19.98;;;5.30;99.90;;;;;;5094822;28;20682;-74
2021/11/06 06:01:05;;;;;;;34.13;17.92;;;5.30;99.90;;;;;;5094910;28;20623;-73
2021/11/06 06:03:32;;;;;;;26.52;16.27;;;5.20;99.90;;;;;;5094072;28;20225;-74
2021/11/06 06:06:00;;;;;;;32.50;18.23;;;5.30;99.90;;;;;;5094963;28;20202;-74
2021/11/06 06:08:27;;;;;;;32.47;18.75;;;5.50;99.90;;;;;;5094913;28;20655;-74
2021/11/06 06:10:54;;;;;;;24.65;15.40;;;5.60;99.90;;;;;;5094496;28;20241;-73
2021/11/06 06:13:21;;;;;;;25.98;17.38;;;5.60;99.90;;;;;;5094648;28;20317;-74
2021/11/06 06:15:48;;;;;;;24.33;15.68;;;5.70;99.90;;;;;;5094543;28;20204;-74
2021/11/06 06:18:15;;;;;;;26.98;15.82;;;5.80;99.90;;;;;;5094759;28;20223;-74
2021/11/06 06:20:42;;;;;;;23.38;14.65;;;5.90;99.90;;;;;;5094713;28;20204;-74
2021/11/06 06:23:10;;;;;;;24.02;14.80;;;6.00;99.90;;;;;;5094198;28;20305;-74
2021/11/06 06:25:37;;;;;;;24.95;14.80;;;6.00;99.90;;;;;;5094572;28;20206;-74
2021/11/06 06:28:06;;;;;;;23.52;14.60;;;6.00;99.90;;;;;;5094594;28;20285;-74
2021/11/06 06:30:35;;;;;;;23.08;15.15;;;6.00;99.90;;;;;;5094557;28;20568;-74
2021/11/06 06:33:02;;;;;;;25.42;15.88;;;6.00;99.90;;;;;;5094152;28;20294;-74
2021/11/06 06:35:29;;;;;;;28.95;16.05;;;6.10;99.90;;;;;;5094396;28;20293;-74
2021/11/06 06:37:57;;;;;;;31.30;16.35;;;6.10;99.90;;;;;;5094295;28;20783;-74
2021/11/06 06:40:25;;;;;;;27.75;16.35;;;6.10;99.90;;;;;;5093996;28;20668;-74
2021/11/06 06:42:52;;;;;;;23.55;15.55;;;6.10;99.90;;;;;;5094153;28;20222;-74
2021/11/06 06:45:19;;;;;;;26.75;13.80;;;6.20;99.90;;;;;;5094126;28;20723;-73
2021/11/06 06:47:46;;;;;;;23.55;15.23;;;6.20;99.90;;;;;;5094218;28;20205;-74
2021/11/06 06:50:13;;;;;;;23.25;15.20;;;6.20;99.90;;;;;;5094195;28;20308;-74
2021/11/06 06:52:41;;;;;;;20.40;14.00;;;6.10;99.90;;;;;;5093780;28;20325;-74
2021/11/06 06:55:09;;;;;;;24.25;15.15;;;5.90;99.90;;;;;;5094310;28;20208;-74
2021/11/06 06:57:37;;;;;;;24.58;15.25;;;5.90;99.90;;;;;;5094084;28;20572;-74
2021/11/06 07:00:07;;;;;;;18.88;12.35;;;5.80;99.90;;;;;;5094037;28;20247;-74
2021/11/06 07:02:34;;;;;;;19.10;12.50;;;5.80;99.90;;;;;;5093584;28;20214;-73
2021/11/06 07:05:01;;;;;;;20.75;12.27;;;5.80;99.90;;;;;;5093973;28;20619;-74
2021/11/06 07:07:28;;;;;;;19.40;11.30;;;5.70;99.90;;;;;;5093930;28;20297;-74
2021/11/06 07:09:55;;;;;;;17.58;11.55;;;5.60;99.90;;;;;;5093662;28;20202;-74
2021/11/06 07:12:24;;;;;;;18.42;10.98;;;5.60;99.90;;;;;;5093451;28;20252;-74
2021/11/06 07:14:53;;;;;;;18.02;10.68;;;5.70;99.90;;;;;;5092969;28;20224;-74
2021/11/06 07:17:19;;;;;;;20.00;10.23;;;5.70;99.90;;;;;;5093750;28;20205;-74
2021/11/06 07:19:46;;;;;;;19.58;11.50;;;5.60;99.90;;;;;;5093763;28;20208;-74
2021/11/06 07:22:13;;;;;;;17.65;10.55;;;5.70;99.90;;;;;;5093438;28;20221;-74
2021/11/06 07:24:40;;;;;;;17.48;11.10;;;5.80;99.90;;;;;;5093783;28;20216;-74
2021/11/06 07:27:09;;;;;;;22.95;12.15;;;5.90;99.90;;;;;;5093582;28;20557;-74
2021/11/06 07:29:37;;;;;;;20.05;12.35;;;6.00;99.90;;;;;;5093782;28;20198;-74
2021/11/06 07:32:06;;;;;;;19.15;11.02;;;6.00;99.90;;;;;;5093265;28;20234;-74
2021/11/06 07:34:32;;;;;;;20.65;12.38;;;6.00;99.90;;;;;;5093399;28;20202;-74
2021/11/06 07:36:59;;;;;;;23.83;12.65;;;6.00;99.90;;;;;;5093601;28;20197;-74
2021/11/06 07:39:26;;;;;;;18.08;11.95;;;6.20;99.90;;;;;;5093274;28;20219;-74
2021/11/06 07:41:53;;;;;;;19.65;13.07;;;6.20;99.90;;;;;;5093329;28;20206;-73
2021/11/06 07:44:20;;;;;;;21.70;13.30;;;6.10;99.90;;;;;;5093606;28;20202;-74
2021/11/06 07:46:47;;;;;;;21.25;13.10;;;6.00;99.90;;;;;;5093175;28;20206;-74
2021/11/06 07:49:15;;;;;;;19.25;11.82;;;6.10;99.90;;;;;;5093236;28;20679;-74
2021/11/06 07:51:43;;;;;;;18.75;12.40;;;6.20;99.90;;;;;;5092938;28;20210;-73
2021/11/06 07:54:09;;;;;;;19.00;11.45;;;6.20;99.90;;;;;;5093482;28;20298;-74
2021/11/06 07:56:38;;;;;;;17.83;11.05;;;6.40;99.90;;;;;;5093390;28;20234;-74
2021/11/06 07:59:05;;;;;;;17.80;10.63;;;6.50;99.90;;;;;;5093352;28;20206;-74
2021/11/06 08:01:32;;;;;;;17.90;11.10;;;6.50;99.90;;;;;;5093197;28;20202;-74
2021/11/06 08:03:59;;;;;;;20.65;12.88;;;6.50;99.90;;;;;;5093362;28;20222;-74
2021/11/06 08:06:27;;;;;;;15.93;10.63;;;6.60;99.90;;;;;;5093310;28;20293;-74
2021/11/06 08:08:54;;;;;;;20.08;12.63;;;6.40;99.90;;;;;;5093301;28;20297;-74
2021/11/06 08:11:21;;;;;;;18.20;11.63;;;6.40;99.90;;;;;;5093104;28;20226;-73
2021/11/06 08:13:47;;;;;;;19.08;11.65;;;6.50;99.90;;;;;;5092866;28;20587;-74
2021/11/06 08:16:15;;;;;;;17.80;11.93;;;6.70;99.90;;;;;;5093041;28;20233;-74
2021/11/06 08:18:42;;;;;;;19.10;11.80;;;6.70;99.90;;;;;;5093252;28;20206;-74
2021/11/06 08:21:08;;;;;;;15.05;10.48;;;6.70;99.90;;;;;;5092887;28;20248;-73
2021/11/06 08:23:37;;;;;;;17.17;10.73;;;6.70;99.90;;;;;;5093165;28;20218;-73
2021/11/06 08:26:04;;;;;;;15.93;9.90;;;6.80;99.90;;;;;;5095310;28;20202;-74
2021/11/06 08:28:31;;;;;;;15.15;9.60;;;6.80;99.90;;;;;;5096821;28;20289;-74
2021/11/06 08:30:57;;;;;;;16.27;9.75;;;6.80;99.90;;;;;;5096800;28;20206;-74
2021/11/06 08:33:25;;;;;;;18.10;10.40;;;6.80;99.90;;;;;;5096695;28;20261;-74
2021/11/06 08:35:51;;;;;;;15.73;9.82;;;6.90;99.90;;;;;;5096704;28;20205;-74
2021/11/06 08:38:18;;;;;;;11.95;8.70;;;7.00;99.90;;;;;;5096648;28;20242;-74
2021/11/06 08:40:47;;;;;;;15.50;8.98;;;6.90;99.90;;;;;;5096282;28;20220;-74
2021/11/06 08:43:13;;;;;;;15.90;10.38;;;7.00;99.90;;;;;;5096145;28;20626;-74
2021/11/06 08:45:40;;;;;;;13.15;9.38;;;6.90;99.90;;;;;;5096579;28;20208;-74
2021/11/06 08:48:08;;;;;;;13.85;9.25;;;7.10;99.90;;;;;;5096378;28;20671;-74
2021/11/06 08:50:35;;;;;;;15.23;10.00;;;7.10;99.90;;;;;;5096464;28;20217;-74
2021/11/06 08:53:02;;;;;;;14.35;9.68;;;7.30;99.90;;;;;;5095899;28;20595;-74
2021/11/06 08:55:29;;;;;;;13.55;9.80;;;7.50;99.90;;;;;;5096081;28;20202;-74
2021/11/06 08:57:57;;;;;;;15.63;11.30;;;7.60;99.90;;;;;;5096333;28;20541;-74
2021/11/06 09:00:31;;;;;;;14.55;10.50;;;7.60;99.90;;;;;;5096272;28;20229;-74
2021/11/06 09:02:59;;;;;;;20.33;11.98;;;7.70;99.90;;;;;;5095969;28;20230;-73
2021/11/06 09:05:27;;;;;;;14.15;10.93;;;7.80;99.90;;;;;;5096245;28;20206;-73
2021/11/06 09:07:54;;;;;;;18.50;11.88;;;7.60;99.90;;;;;;5096086;28;20309;-74
2021/11/06 09:10:21;;;;;;;14.35;9.65;;;7.70;99.90;;;;;;5096079;28;20202;-74
2021/11/06 09:12:50;;;;;;;13.20;9.65;;;7.80;99.90;;;;;;5095464;28;20691;-73
2021/11/06 09:15:19;;;;;;;16.25;10.90;;;7.80;99.90;;;;;;5095983;28;20297;-74
2021/11/06 09:17:46;;;;;;;17.15;10.95;;;7.70;99.90;;;;;;5095942;28;20582;-74
2021/11/06 09:20:13;;;;;;;14.23;11.35;;;7.70;99.90;;;;;;5095845;28;20684;-74
2021/11/06 09:22:40;;;;;;;13.70;9.73;;;7.80;99.90;;;;;;5095393;28;20304;-74
2021/11/06 09:25:09;;;;;;;16.55;9.65;;;7.90;99.90;;;;;;5095811;28;20206;-74
2021/11/06 09:27:36;;;;;;;15.13;10.93;;;7.80;99.90;;;;;;5095763;28;20198;-74
2021/11/06 09:30:03;;;;;;;15.05;10.40;;;7.90;99.90;;;;;;5095680;28;20229;-74
2021/11/06 09:32:31;;;;;;;17.85;12.23;;;8.00;99.90;;;;;;5095016;28;20771;-74
2021/11/06 09:34:58;;;;;;;17.63;10.85;;;8.10;99.90;;;;;;5095511;28;20297;-74
2021/11/06 09:37:25;;;;;;;18.10;12.02;;;8.20;99.90;;;;;;5094540;28;20228;-74
2021/11/06 09:39:53;;;;;;;17.20;12.15;;;8.30;99.90;;;;;;5095363;28;20214;-74
2021/11/06 09:42:21;;;;;;;15.77;12.15;;;8.30;99.90;;;;;;5095143;28;20254;-74
2021/11/06 09:44:50;;;;;;;16.08;10.63;;;8.40;99.90;;;;;;5095132;28;20212;-74
2021/11/06 09:47:19;;;;;;;13.80;10.38;;;8.40;99.90;;;;;;5095323;28;20208;-74
2021/11/06 09:49:48;;;;;;;13.20;9.18;;;8.20;99.90;;;;;;5095287;28;20283;-74
2021/11/06 09:52:15;;;;;;;17.85;9.60;;;8.10;99.90;;;;;;5094997;28;20645;-73
2021/11/06 09:54:43;;;;;;;15.30;10.05;;;8.10;99.90;;;;;;5095199;28;20254;-74
2021/11/06 09:57:10;;;;;;;17.10;9.73;;;8.20;99.90;;;;;;5095135;28;20202;-74
2021/11/06 09:59:37;;;;;;;13.57;9.52;;;8.10;99.90;;;;;;5095129;28;20542;-74
2021/11/06 10:02:05;;;;;;;14.40;9.70;;;8.10;99.90;;;;;;5094699;28;20309;-73
2021/11/06 10:04:32;;;;;;;16.00;9.95;;;7.80;99.90;;;;;;5095016;28;20255;-74
2021/11/06 10:07:13;;;;;;;15.90;10.32;;;7.80;99.90;;;;;;5095026;28;20252;-74
2021/11/06 10:09:40;;;;;;;15.68;10.75;;;7.80;99.90;;;;;;5094968;28;20212;-74
2021/11/06 10:12:08;;;;;;;15.77;10.52;;;8.00;99.90;;;;;;5094408;28;20308;-74
2021/11/06 10:14:34;;;;;;;15.00;10.35;;;8.00;99.90;;;;;;5094735;28;20226;-74
2021/11/06 10:17:03;;;;;;;15.75;10.70;;;8.20;99.90;;;;;;5094842;28;20241;-73
2021/11/06 10:19:33;;;;;;;13.88;10.15;;;8.20;99.90;;;;;;5094558;28;20198;-74
2021/11/06 10:22:12;;;;;;;16.52;9.40;;;8.40;99.90;;;;;;5094451;28;20297;-74
2021/11/06 10:24:42;;;;;;;14.40;10.27;;;8.40;99.90;;;;;;5094753;28;20189;-74
2021/11/06 10:27:18;;;;;;;15.85;10.05;;;8.50;99.90;;;;;;5094528;28;20296;-74
2021/11/06 10:29:45;;;;;;;13.65;9.50;;;8.50;99.90;;;;;;5094353;28;20210;-74
2021/11/06 10:32:12;;;;;;;16.88;9.98;;;8.50;99.90;;;;;;5094287;28;20232;-74
2021/11/06 10:34:40;;;;;;;16.50;11.35;;;8.50;99.90;;;;;;5094469;28;20229;-74
2021/11/06 10:37:12;;;;;;;17.25;11.27;;;8.70;99.90;;;;;;5094220;28;20198;-74
2021/11/06 10:39:53;;;;;;;14.05;9.85;;;8.90;99.90;;;;;;5094130;28;20245;-74
2021/11/06 10:42:19;;;;;;;16.02;11.13;;;9.00;99.90;;;;;;5094030;28;20228;-74
2021/11/06 10:44:46;;;;;;;16.77;10.52;;;9.10;99.90;;;;;;5094359;28;20220;-74
2021/11/06 10:47:13;;;;;;;15.77;10.40;;;9.30;99.90;;;;;;5094132;28;20233;-74
2021/11/06 10:49:42;;;;;;;16.30;11.32;;;9.50;99.90;;;;;;5094239;28;20619;-74
2021/11/06 10:52:12;;;;;;;17.83;11.57;;;9.50;99.90;;;;;;5093728;28;20228;-74
2021/11/06 10:55:00;;;;;;;14.82;10.02;;;9.80;99.90;;;;;;5093839;28;20218;-74
2021/11/06 10:57:28;;;;;;;19.35;13.65;;;9.50;99.90;;;;;;5094358;28;20262;-74
2021/11/06 11:00:11;;;;;;;20.52;13.02;;;9.60;99.90;;;;;;5094229;28;20285;-74
2021/11/06 11:02:39;;;;;;;18.48;12.55;;;9.70;99.90;;;;;;5093618;28;20707;-74
2021/11/06 11:05:06;;;;;;;18.80;12.63;;;9.60;99.90;;;;;;5093992;28;20200;-75
2021/11/06 11:07:34;;;;;;;21.73;13.43;;;9.70;99.90;;;;;;5093942;28;20549;-74
2021/11/06 11:10:21;;;;;;;20.25;13.05;;;9.70;99.90;;;;;;5093747;28;20755;-75
2021/11/06 11:13:07;;;;;;;20.35;14.27;;;9.70;99.90;;;;;;5093412;28;20321;-74
2021/11/06 11:15:34;;;;;;;22.80;14.63;;;9.90;99.90;;;;;;5093599;28;20687;-74
2021/11/06 11:18:01;;;;;;;21.23;13.90;;;10.00;99.90;;;;;;5093644;28;20213;-74
2021/11/06 11:20:30;;;;;;;20.15;13.50;;;9.90;99.90;;;;;;5093754;28;20297;-74
2021/11/06 11:23:18;;;;;;;16.10;12.00;;;9.80;99.90;;;;;;5093367;28;20254;-74
2021/11/06 11:25:45;;;;;;;22.00;14.88;;;9.90;99.90;;;;;;5093518;28;20702;-74
2021/11/06 11:28:13;;;;;;;25.60;17.90;;;10.00;99.90;;;;;;5093701;28;20197;-74
2021/11/06 11:30:40;;;;;;;19.63;13.82;;;10.10;99.90;;;;;;5093696;28;20201;-74
2021/11/06 11:33:08;;;;;;;24.75;15.88;;;10.20;99.90;;;;;;5093219;28;20228;-74
2021/11/06 11:35:36;;;;;;;24.17;17.17;;;10.20;99.90;;;;;;5093705;28;20619;-74
2021/11/06 11:38:04;;;;;;;22.98;14.95;;;10.20;99.90;;;;;;5093575;28;20285;-74
2021/11/06 11:40:35;;;;;;;24.23;15.75;;;10.20;99.90;;;;;;5093296;28;20210;-74
2021/11/06 11:43:15;;;;;;;22.67;15.00;;;10.10;99.90;;;;;;5093394;28;20308;-74
2021/11/06 11:45:50;;;;;;;21.58;14.98;;;10.30;99.90;;;;;;5093557;28;20216;-75
2021/11/06 11:48:23;;;;;;;22.90;16.80;;;10.30;99.90;;;;;;5093447;28;20206;-75
2021/11/06 11:50:51;;;;;;;22.38;16.58;;;10.30;99.90;;;;;;5093309;28;20731;-74
2021/11/06 11:53:27;;;;;;;26.50;17.30;;;10.10;99.90;;;;;;5092910;28;20241;-74
2021/11/06 11:55:57;;;;;;;24.58;15.77;;;10.10;99.90;;;;;;5093569;28;20223;-74
2021/11/06 11:58:26;;;;;;;24.80;16.52;;;10.00;99.90;;;;;;5093520;28;20541;-75
2021/11/06 12:00:55;;;;;;;24.50;17.75;;;10.10;99.90;;;;;;5095387;28;20288;-74
2021/11/06 12:03:33;;;;;;;28.15;18.30;;;10.10;99.90;;;;;;5096874;28;20228;-74
2021/11/06 12:06:01;;;;;;;28.23;17.98;;;10.30;99.90;;;;;;5097362;28;20213;-75
2021/11/06 12:08:33;;;;;;;28.15;18.70;;;10.50;99.90;;;;;;5097300;28;20240;-75
2021/11/06 12:11:14;;;;;;;26.48;17.67;;;10.50;99.90;;;;;;5097518;28;20205;-74
2021/11/06 12:13:42;;;;;;;27.15;18.67;;;10.60;99.90;;;;;;5097165;28;20258;-75
2021/11/06 12:16:11;;;;;;;30.92;20.42;;;11.00;99.90;;;;;;5096873;28;20210;-75
2021/11/06 12:18:50;;;;;;;23.67;16.40;;;11.50;99.90;;;;;;5097108;28;20389;-75
2021/11/06 12:21:27;;;;;;;26.45;20.13;;;12.00;99.90;;;;;;5096863;28;20204;-74
2021/11/06 12:23:55;;;;;;;31.65;20.20;;;12.10;99.90;;;;;;5096943;28;20218;-75
2021/11/06 12:26:25;;;;;;;32.92;23.42;;;12.30;99.90;;;;;;5096982;28;20199;-75
2021/11/06 12:29:14;;;;;;;35.83;23.40;;;12.60;99.90;;;;;;5096708;28;20668;-75
2021/11/06 12:31:44;;;;;;;30.73;19.35;;;12.40;99.90;;;;;;5096524;28;20633;-74
2021/11/06 12:34:29;;;;;;;28.30;18.77;;;12.50;99.90;;;;;;5096749;28;20214;-75
2021/11/06 12:36:56;;;;;;;33.97;20.92;;;12.70;99.90;;;;;;5096807;28;20288;-75
2021/11/06 12:39:43;;;;;;;27.77;17.73;;;12.70;99.90;;;;;;5096764;28;20707;-75